Brimfield, Massachusetts
Current Conditions -  °F | °C
As of 4:58 PM on Friday 31 Oct 2014 (Local Time) from KCEF Reporting Station
Overcast Overcast  
Wind Chill: 50°   Ceiling: 4100
Heat Index: 50°   Visibility: 10mi
Dew Point: 39°   Wind: 5mph
Humidity: 65%   Direction: 30°NNE
Pressure: 29.94"   Gusts: NA
Location:  42.12°N, 72.2°W
Report Text: KCEF 312058Z AUTO 03004KT 10SM OVC041 10/04 A2994 RMK AO2 SLP146 T01020039 56004
Loading
Personal Weather Stations






























Interactive Weather Map
Tropical Storm Tracking
New forecast layout! Learn more

10-Day Weather Forecast

Advertisements
Track Severe Weather on mobile